sensor_id;sensor_type;location;lat;lon;timestamp;P1;durP1;ratioP1;P2;durP2;ratioP2
20970;SDS011;10644;48.834;10.088;2022-07-23T00:01:29;15.67;;;9.07;;
20970;SDS011;10644;48.834;10.088;2022-07-23T00:03:56;9.80;;;8.90;;
20970;SDS011;10644;48.834;10.088;2022-07-23T00:08:53;11.80;;;6.00;;
20970;SDS011;10644;48.834;10.088;2022-07-23T00:11:19;12.37;;;7.63;;
20970;SDS011;10644;48.834;10.088;2022-07-23T00:13:49;11.00;;;6.77;;
20970;SDS011;10644;48.834;10.088;2022-07-23T00:19:04;9.60;;;6.67;;
20970;SDS011;10644;48.834;10.088;2022-07-23T00:23:59;12.00;;;6.10;;
20970;SDS011;10644;48.834;10.088;2022-07-23T00:26:25;9.90;;;6.80;;
20970;SDS011;10644;48.834;10.088;2022-07-23T00:31:19;7.80;;;6.30;;
20970;SDS011;10644;48.834;10.088;2022-07-23T00:33:45;7.50;;;6.80;;
20970;SDS011;10644;48.834;10.088;2022-07-23T00:36:12;9.37;;;6.70;;
20970;SDS011;10644;48.834;10.088;2022-07-23T00:38:44;8.00;;;6.50;;
20970;SDS011;10644;48.834;10.088;2022-07-23T00:41:14;8.53;;;6.10;;
20970;SDS011;10644;48.834;10.088;2022-07-23T00:43:39;11.03;;;6.17;;
20970;SDS011;10644;48.834;10.088;2022-07-23T00:46:05;7.77;;;6.97;;
20970;SDS011;10644;48.834;10.088;2022-07-23T00:48:30;10.93;;;6.60;;
20970;SDS011;10644;48.834;10.088;2022-07-23T00:50:56;10.20;;;7.30;;
20970;SDS011;10644;48.834;10.088;2022-07-23T00:53:24;7.10;;;6.40;;
20970;SDS011;10644;48.834;10.088;2022-07-23T00:55:51;7.00;;;6.30;;
20970;SDS011;10644;48.834;10.088;2022-07-23T00:58:17;10.80;;;7.27;;
20970;SDS011;10644;48.834;10.088;2022-07-23T01:00:43;9.47;;;6.97;;
20970;SDS011;10644;48.834;10.088;2022-07-23T01:03:10;13.73;;;6.87;;
20970;SDS011;10644;48.834;10.088;2022-07-23T01:05:35;9.43;;;6.60;;
20970;SDS011;10644;48.834;10.088;2022-07-23T01:10:50;11.30;;;7.10;;
20970;SDS011;10644;48.834;10.088;2022-07-23T01:13:19;10.30;;;7.73;;
20970;SDS011;10644;48.834;10.088;2022-07-23T01:15:45;12.67;;;8.40;;
20970;SDS011;10644;48.834;10.088;2022-07-23T01:18:28;8.20;;;6.60;;
20970;SDS011;10644;48.834;10.088;2022-07-23T01:20:55;7.13;;;6.40;;
20970;SDS011;10644;48.834;10.088;2022-07-23T01:23:23;10.17;;;7.77;;
20970;SDS011;10644;48.834;10.088;2022-07-23T01:25:53;7.90;;;6.83;;
20970;SDS011;10644;48.834;10.088;2022-07-23T01:28:20;11.43;;;7.90;;
20970;SDS011;10644;48.834;10.088;2022-07-23T01:30:46;7.53;;;6.73;;
20970;SDS011;10644;48.834;10.088;2022-07-23T01:33:16;9.60;;;8.00;;
20970;SDS011;10644;48.834;10.088;2022-07-23T01:35:43;8.17;;;7.37;;
20970;SDS011;10644;48.834;10.088;2022-07-23T01:38:10;7.60;;;6.33;;
20970;SDS011;10644;48.834;10.088;2022-07-23T01:40:36;9.20;;;6.70;;
20970;SDS011;10644;48.834;10.088;2022-07-23T01:43:08;11.00;;;6.40;;
20970;SDS011;10644;48.834;10.088;2022-07-23T01:48:03;6.73;;;5.97;;
20970;SDS011;10644;48.834;10.088;2022-07-23T01:50:33;16.23;;;6.70;;
20970;SDS011;10644;48.834;10.088;2022-07-23T01:55:49;7.37;;;5.37;;
20970;SDS011;10644;48.834;10.088;2022-07-23T01:58:20;6.03;;;5.50;;
20970;SDS011;10644;48.834;10.088;2022-07-23T02:00:45;6.90;;;5.77;;
20970;SDS011;10644;48.834;10.088;2022-07-23T02:03:10;7.60;;;5.80;;
20970;SDS011;10644;48.834;10.088;2022-07-23T02:05:37;9.43;;;6.77;;
20970;SDS011;10644;48.834;10.088;2022-07-23T02:08:09;6.37;;;5.77;;
20970;SDS011;10644;48.834;10.088;2022-07-23T02:10:42;22.03;;;6.63;;
20970;SDS011;10644;48.834;10.088;2022-07-23T02:13:09;11.70;;;6.50;;
20970;SDS011;10644;48.834;10.088;2022-07-23T02:15:41;9.63;;;6.43;;
20970;SDS011;10644;48.834;10.088;2022-07-23T02:18:09;7.43;;;5.83;;
20970;SDS011;10644;48.834;10.088;2022-07-23T02:20:46;10.17;;;6.83;;
20970;SDS011;10644;48.834;10.088;2022-07-23T02:23:11;9.40;;;7.00;;
20970;SDS011;10644;48.834;10.088;2022-07-23T02:25:43;8.20;;;7.30;;
20970;SDS011;10644;48.834;10.088;2022-07-23T02:28:15;11.30;;;7.17;;
20970;SDS011;10644;48.834;10.088;2022-07-23T02:30:41;10.73;;;7.07;;
20970;SDS011;10644;48.834;10.088;2022-07-23T02:33:07;8.73;;;6.20;;
20970;SDS011;10644;48.834;10.088;2022-07-23T02:35:32;9.87;;;7.27;;
20970;SDS011;10644;48.834;10.088;2022-07-23T02:37:58;10.00;;;6.90;;
20970;SDS011;10644;48.834;10.088;2022-07-23T02:40:25;10.37;;;7.23;;
20970;SDS011;10644;48.834;10.088;2022-07-23T02:42:50;10.20;;;6.57;;
20970;SDS011;10644;48.834;10.088;2022-07-23T02:45:15;13.10;;;6.70;;
20970;SDS011;10644;48.834;10.088;2022-07-23T02:47:41;12.23;;;6.97;;
20970;SDS011;10644;48.834;10.088;2022-07-23T02:50:06;10.37;;;7.00;;
20970;SDS011;10644;48.834;10.088;2022-07-23T02:52:47;12.13;;;6.30;;
20970;SDS011;10644;48.834;10.088;2022-07-23T02:55:13;9.43;;;7.23;;
20970;SDS011;10644;48.834;10.088;2022-07-23T02:57:40;11.57;;;6.80;;
20970;SDS011;10644;48.834;10.088;2022-07-23T03:00:07;8.80;;;7.33;;
20970;SDS011;10644;48.834;10.088;2022-07-23T03:05:07;7.70;;;6.53;;
20970;SDS011;10644;48.834;10.088;2022-07-23T03:07:34;14.73;;;7.53;;
20970;SDS011;10644;48.834;10.088;2022-07-23T03:09:59;11.47;;;7.03;;
20970;SDS011;10644;48.834;10.088;2022-07-23T03:12:26;12.63;;;7.27;;
20970;SDS011;10644;48.834;10.088;2022-07-23T03:14:51;8.17;;;7.00;;
20970;SDS011;10644;48.834;10.088;2022-07-23T03:17:17;7.77;;;6.07;;
20970;SDS011;10644;48.834;10.088;2022-07-23T03:19:42;10.17;;;6.83;;
20970;SDS011;10644;48.834;10.088;2022-07-23T03:22:08;10.30;;;7.00;;
20970;SDS011;10644;48.834;10.088;2022-07-23T03:24:33;7.63;;;6.60;;
20970;SDS011;10644;48.834;10.088;2022-07-23T03:27:19;7.83;;;6.80;;
20970;SDS011;10644;48.834;10.088;2022-07-23T03:32:18;14.23;;;8.20;;
20970;SDS011;10644;48.834;10.088;2022-07-23T03:37:15;9.70;;;6.97;;
20970;SDS011;10644;48.834;10.088;2022-07-23T03:42:12;8.13;;;7.10;;
20970;SDS011;10644;48.834;10.088;2022-07-23T03:44:39;12.13;;;7.80;;
20970;SDS011;10644;48.834;10.088;2022-07-23T03:47:05;16.10;;;8.57;;
20970;SDS011;10644;48.834;10.088;2022-07-23T03:49:31;10.23;;;7.30;;
20970;SDS011;10644;48.834;10.088;2022-07-23T03:51:57;13.50;;;8.20;;
20970;SDS011;10644;48.834;10.088;2022-07-23T03:54:23;8.67;;;7.10;;
20970;SDS011;10644;48.834;10.088;2022-07-23T03:56:49;11.50;;;7.33;;
20970;SDS011;10644;48.834;10.088;2022-07-23T03:59:15;10.30;;;7.10;;
20970;SDS011;10644;48.834;10.088;2022-07-23T04:01:42;10.40;;;7.73;;
20970;SDS011;10644;48.834;10.088;2022-07-23T04:09:24;7.63;;;6.40;;
20970;SDS011;10644;48.834;10.088;2022-07-23T04:11:52;10.10;;;7.27;;
20970;SDS011;10644;48.834;10.088;2022-07-23T04:14:17;7.57;;;6.87;;
20970;SDS011;10644;48.834;10.088;2022-07-23T04:16:45;7.90;;;6.70;;
20970;SDS011;10644;48.834;10.088;2022-07-23T04:19:11;8.30;;;7.03;;
20970;SDS011;10644;48.834;10.088;2022-07-23T04:21:38;9.30;;;7.57;;
20970;SDS011;10644;48.834;10.088;2022-07-23T04:24:05;9.70;;;7.77;;
20970;SDS011;10644;48.834;10.088;2022-07-23T04:26:32;12.03;;;6.70;;
20970;SDS011;10644;48.834;10.088;2022-07-23T04:29:01;7.50;;;6.37;;
20970;SDS011;10644;48.834;10.088;2022-07-23T04:31:29;9.50;;;7.60;;
20970;SDS011;10644;48.834;10.088;2022-07-23T04:33:58;12.83;;;8.10;;
20970;SDS011;10644;48.834;10.088;2022-07-23T04:36:24;9.77;;;7.50;;
20970;SDS011;10644;48.834;10.088;2022-07-23T04:38:56;9.17;;;6.67;;
20970;SDS011;10644;48.834;10.088;2022-07-23T04:41:21;27.20;;;9.00;;
20970;SDS011;10644;48.834;10.088;2022-07-23T04:46:34;11.33;;;8.20;;
20970;SDS011;10644;48.834;10.088;2022-07-23T04:49:01;10.13;;;7.80;;
20970;SDS011;10644;48.834;10.088;2022-07-23T04:51:26;10.10;;;8.10;;
20970;SDS011;10644;48.834;10.088;2022-07-23T04:53:56;8.83;;;7.90;;
20970;SDS011;10644;48.834;10.088;2022-07-23T04:56:23;9.43;;;7.30;;
20970;SDS011;10644;48.834;10.088;2022-07-23T04:58:48;11.00;;;8.17;;
20970;SDS011;10644;48.834;10.088;2022-07-23T05:03:44;9.00;;;7.87;;
20970;SDS011;10644;48.834;10.088;2022-07-23T05:06:10;11.00;;;8.27;;
20970;SDS011;10644;48.834;10.088;2022-07-23T05:08:43;11.47;;;8.30;;
20970;SDS011;10644;48.834;10.088;2022-07-23T05:13:55;15.10;;;8.37;;
20970;SDS011;10644;48.834;10.088;2022-07-23T05:16:35;11.27;;;7.10;;
20970;SDS011;10644;48.834;10.088;2022-07-23T05:21:52;9.70;;;8.40;;
20970;SDS011;10644;48.834;10.088;2022-07-23T05:24:18;11.20;;;8.13;;
20970;SDS011;10644;48.834;10.088;2022-07-23T05:26:44;18.50;;;7.73;;
20970;SDS011;10644;48.834;10.088;2022-07-23T05:29:12;11.40;;;8.40;;
20970;SDS011;10644;48.834;10.088;2022-07-23T05:31:39;11.73;;;8.47;;
20970;SDS011;10644;48.834;10.088;2022-07-23T05:34:04;14.93;;;8.80;;
20970;SDS011;10644;48.834;10.088;2022-07-23T05:36:31;10.30;;;7.57;;
20970;SDS011;10644;48.834;10.088;2022-07-23T05:38:57;10.73;;;7.43;;
20970;SDS011;10644;48.834;10.088;2022-07-23T05:41:22;14.13;;;7.90;;
20970;SDS011;10644;48.834;10.088;2022-07-23T05:43:49;10.27;;;8.60;;
20970;SDS011;10644;48.834;10.088;2022-07-23T05:46:14;13.43;;;8.17;;
20970;SDS011;10644;48.834;10.088;2022-07-23T05:48:42;10.13;;;7.43;;
20970;SDS011;10644;48.834;10.088;2022-07-23T05:51:23;13.70;;;9.07;;
20970;SDS011;10644;48.834;10.088;2022-07-23T05:53:50;11.27;;;7.70;;
20970;SDS011;10644;48.834;10.088;2022-07-23T05:56:17;12.43;;;8.43;;
20970;SDS011;10644;48.834;10.088;2022-07-23T05:58:44;11.50;;;8.37;;
20970;SDS011;10644;48.834;10.088;2022-07-23T06:01:09;18.40;;;9.27;;
20970;SDS011;10644;48.834;10.088;2022-07-23T06:03:37;10.87;;;7.70;;
20970;SDS011;10644;48.834;10.088;2022-07-23T06:06:06;10.97;;;8.30;;
20970;SDS011;10644;48.834;10.088;2022-07-23T06:08:31;12.30;;;8.90;;
20970;SDS011;10644;48.834;10.088;2022-07-23T06:10:56;16.70;;;9.10;;
20970;SDS011;10644;48.834;10.088;2022-07-23T06:13:22;11.83;;;8.17;;
20970;SDS011;10644;48.834;10.088;2022-07-23T06:15:54;11.57;;;7.47;;
20970;SDS011;10644;48.834;10.088;2022-07-23T06:18:19;9.07;;;7.83;;
20970;SDS011;10644;48.834;10.088;2022-07-23T06:23:24;18.37;;;8.50;;
20970;SDS011;10644;48.834;10.088;2022-07-23T06:25:50;20.73;;;9.43;;
20970;SDS011;10644;48.834;10.088;2022-07-23T06:28:15;8.70;;;7.80;;
20970;SDS011;10644;48.834;10.088;2022-07-23T06:30:42;13.57;;;8.50;;
20970;SDS011;10644;48.834;10.088;2022-07-23T06:33:08;16.73;;;8.93;;
20970;SDS011;10644;48.834;10.088;2022-07-23T06:35:33;11.80;;;8.37;;
20970;SDS011;10644;48.834;10.088;2022-07-23T06:37:59;11.13;;;7.80;;
20970;SDS011;10644;48.834;10.088;2022-07-23T06:40:24;9.00;;;7.37;;
20970;SDS011;10644;48.834;10.088;2022-07-23T06:42:52;15.63;;;8.13;;
20970;SDS011;10644;48.834;10.088;2022-07-23T06:45:36;12.83;;;8.20;;
20970;SDS011;10644;48.834;10.088;2022-07-23T06:48:08;9.23;;;7.73;;
20970;SDS011;10644;48.834;10.088;2022-07-23T06:50:33;10.83;;;8.03;;
20970;SDS011;10644;48.834;10.088;2022-07-23T06:53:01;13.40;;;7.80;;
20970;SDS011;10644;48.834;10.088;2022-07-23T06:55:36;13.23;;;8.20;;
20970;SDS011;10644;48.834;10.088;2022-07-23T06:58:17;13.23;;;8.83;;
20970;SDS011;10644;48.834;10.088;2022-07-23T07:00:44;12.50;;;7.77;;
20970;SDS011;10644;48.834;10.088;2022-07-23T07:03:17;15.27;;;8.53;;
20970;SDS011;10644;48.834;10.088;2022-07-23T07:05:43;10.77;;;7.80;;
20970;SDS011;10644;48.834;10.088;2022-07-23T07:08:13;14.90;;;8.67;;
20970;SDS011;10644;48.834;10.088;2022-07-23T07:10:39;12.53;;;8.67;;
20970;SDS011;10644;48.834;10.088;2022-07-23T07:13:06;9.30;;;7.80;;
20970;SDS011;10644;48.834;10.088;2022-07-23T07:15:31;9.23;;;8.03;;
20970;SDS011;10644;48.834;10.088;2022-07-23T07:17:57;9.93;;;7.67;;
20970;SDS011;10644;48.834;10.088;2022-07-23T07:20:27;8.67;;;7.77;;
20970;SDS011;10644;48.834;10.088;2022-07-23T07:22:53;8.47;;;7.33;;
20970;SDS011;10644;48.834;10.088;2022-07-23T07:25:37;10.57;;;7.73;;
20970;SDS011;10644;48.834;10.088;2022-07-23T07:28:04;15.00;;;8.30;;
20970;SDS011;10644;48.834;10.088;2022-07-23T07:30:29;9.00;;;7.47;;
20970;SDS011;10644;48.834;10.088;2022-07-23T07:32:56;21.63;;;8.40;;
20970;SDS011;10644;48.834;10.088;2022-07-23T07:35:21;14.87;;;8.73;;
20970;SDS011;10644;48.834;10.088;2022-07-23T07:37:47;13.70;;;9.20;;
20970;SDS011;10644;48.834;10.088;2022-07-23T07:40:13;9.97;;;8.27;;
20970;SDS011;10644;48.834;10.088;2022-07-23T07:42:45;16.30;;;8.17;;
20970;SDS011;10644;48.834;10.088;2022-07-23T07:45:15;10.03;;;8.90;;
20970;SDS011;10644;48.834;10.088;2022-07-23T07:50:12;11.90;;;8.17;;
20970;SDS011;10644;48.834;10.088;2022-07-23T07:52:37;17.63;;;9.70;;
20970;SDS011;10644;48.834;10.088;2022-07-23T07:55:07;20.73;;;9.87;;
20970;SDS011;10644;48.834;10.088;2022-07-23T07:57:34;23.73;;;9.70;;
20970;SDS011;10644;48.834;10.088;2022-07-23T08:00:03;14.50;;;8.23;;
20970;SDS011;10644;48.834;10.088;2022-07-23T08:02:38;24.67;;;10.17;;
20970;SDS011;10644;48.834;10.088;2022-07-23T08:05:11;21.23;;;9.23;;
20970;SDS011;10644;48.834;10.088;2022-07-23T08:07:40;14.73;;;8.20;;
20970;SDS011;10644;48.834;10.088;2022-07-23T08:10:08;13.33;;;8.30;;
20970;SDS011;10644;48.834;10.088;2022-07-23T08:12:49;25.97;;;10.00;;
20970;SDS011;10644;48.834;10.088;2022-07-23T08:15:22;11.87;;;9.40;;
20970;SDS011;10644;48.834;10.088;2022-07-23T08:17:49;12.23;;;8.97;;
20970;SDS011;10644;48.834;10.088;2022-07-23T08:20:15;11.90;;;8.80;;
20970;SDS011;10644;48.834;10.088;2022-07-23T08:22:49;13.17;;;9.30;;
20970;SDS011;10644;48.834;10.088;2022-07-23T08:27:51;11.93;;;9.00;;
20970;SDS011;10644;48.834;10.088;2022-07-23T08:30:17;16.70;;;9.17;;
20970;SDS011;10644;48.834;10.088;2022-07-23T08:32:50;15.17;;;9.67;;
20970;SDS011;10644;48.834;10.088;2022-07-23T08:35:33;9.60;;;8.37;;
20970;SDS011;10644;48.834;10.088;2022-07-23T08:38:01;11.23;;;8.70;;
20970;SDS011;10644;48.834;10.088;2022-07-23T08:40:29;11.47;;;8.73;;
20970;SDS011;10644;48.834;10.088;2022-07-23T08:42:56;20.27;;;9.70;;
20970;SDS011;10644;48.834;10.088;2022-07-23T08:47:57;15.37;;;9.40;;
20970;SDS011;10644;48.834;10.088;2022-07-23T08:50:25;16.90;;;8.77;;
20970;SDS011;10644;48.834;10.088;2022-07-23T08:52:51;14.63;;;8.30;;
20970;SDS011;10644;48.834;10.088;2022-07-23T08:55:25;11.37;;;8.80;;
20970;SDS011;10644;48.834;10.088;2022-07-23T08:57:51;10.90;;;8.07;;
20970;SDS011;10644;48.834;10.088;2022-07-23T09:00:18;10.57;;;8.53;;
20970;SDS011;10644;48.834;10.088;2022-07-23T09:02:45;12.73;;;8.70;;
20970;SDS011;10644;48.834;10.088;2022-07-23T09:05:14;10.80;;;8.50;;
20970;SDS011;10644;48.834;10.088;2022-07-23T09:11:09;11.90;;;8.67;;
20970;SDS011;10644;48.834;10.088;2022-07-23T09:18:48;13.47;;;9.43;;
20970;SDS011;10644;48.834;10.088;2022-07-23T09:23:56;15.27;;;9.83;;
20970;SDS011;10644;48.834;10.088;2022-07-23T09:26:36;16.30;;;10.53;;
20970;SDS011;10644;48.834;10.088;2022-07-23T09:29:07;22.40;;;9.33;;
20970;SDS011;10644;48.834;10.088;2022-07-23T09:34:10;16.80;;;10.37;;
20970;SDS011;10644;48.834;10.088;2022-07-23T09:36:37;14.20;;;9.70;;
20970;SDS011;10644;48.834;10.088;2022-07-23T09:39:03;18.90;;;10.83;;
20970;SDS011;10644;48.834;10.088;2022-07-23T09:41:35;15.63;;;9.50;;
20970;SDS011;10644;48.834;10.088;2022-07-23T09:44:09;18.47;;;11.40;;
20970;SDS011;10644;48.834;10.088;2022-07-23T09:46:36;11.20;;;8.47;;
20970;SDS011;10644;48.834;10.088;2022-07-23T09:49:10;20.80;;;10.93;;
20970;SDS011;10644;48.834;10.088;2022-07-23T09:51:44;12.00;;;8.80;;
20970;SDS011;10644;48.834;10.088;2022-07-23T09:54:21;9.50;;;8.50;;
20970;SDS011;10644;48.834;10.088;2022-07-23T09:56:49;11.23;;;8.47;;
20970;SDS011;10644;48.834;10.088;2022-07-23T09:59:17;16.20;;;9.63;;
20970;SDS011;10644;48.834;10.088;2022-07-23T10:01:49;23.57;;;9.93;;
20970;SDS011;10644;48.834;10.088;2022-07-23T10:04:16;13.53;;;9.10;;
20970;SDS011;10644;48.834;10.088;2022-07-23T10:06:43;16.10;;;8.90;;
20970;SDS011;10644;48.834;10.088;2022-07-23T10:09:10;9.73;;;8.17;;
20970;SDS011;10644;48.834;10.088;2022-07-23T10:11:45;11.97;;;9.33;;
20970;SDS011;10644;48.834;10.088;2022-07-23T10:14:13;9.80;;;7.97;;
20970;SDS011;10644;48.834;10.088;2022-07-23T10:16:39;9.67;;;7.83;;
20970;SDS011;10644;48.834;10.088;2022-07-23T10:19:12;10.77;;;7.90;;
20970;SDS011;10644;48.834;10.088;2022-07-23T10:21:43;8.93;;;8.03;;
20970;SDS011;10644;48.834;10.088;2022-07-23T10:29:50;8.60;;;7.40;;
20970;SDS011;10644;48.834;10.088;2022-07-23T10:37:45;15.13;;;8.20;;
20970;SDS011;10644;48.834;10.088;2022-07-23T10:42:45;9.73;;;8.50;;
20970;SDS011;10644;48.834;10.088;2022-07-23T10:48:17;14.53;;;8.53;;
20970;SDS011;10644;48.834;10.088;2022-07-23T10:56:14;10.20;;;7.70;;
20970;SDS011;10644;48.834;10.088;2022-07-23T10:58:48;19.30;;;9.80;;
20970;SDS011;10644;48.834;10.088;2022-07-23T11:01:37;13.30;;;9.30;;
20970;SDS011;10644;48.834;10.088;2022-07-23T11:04:04;9.20;;;8.30;;
20970;SDS011;10644;48.834;10.088;2022-07-23T11:09:30;9.50;;;8.50;;
20970;SDS011;10644;48.834;10.088;2022-07-23T11:22:45;18.93;;;9.70;;
20970;SDS011;10644;48.834;10.088;2022-07-23T11:25:26;15.87;;;9.47;;
20970;SDS011;10644;48.834;10.088;2022-07-23T11:28:18;14.77;;;8.90;;
20970;SDS011;10644;48.834;10.088;2022-07-23T11:30:46;13.83;;;9.43;;
20970;SDS011;10644;48.834;10.088;2022-07-23T11:33:15;12.10;;;8.30;;
20970;SDS011;10644;48.834;10.088;2022-07-23T11:35:43;11.97;;;8.77;;
20970;SDS011;10644;48.834;10.088;2022-07-23T11:38:21;12.80;;;9.77;;
20970;SDS011;10644;48.834;10.088;2022-07-23T11:40:52;12.87;;;9.53;;
20970;SDS011;10644;48.834;10.088;2022-07-23T11:43:20;11.80;;;8.90;;
20970;SDS011;10644;48.834;10.088;2022-07-23T11:45:49;8.97;;;8.07;;
20970;SDS011;10644;48.834;10.088;2022-07-23T11:48:19;12.10;;;9.60;;
20970;SDS011;10644;48.834;10.088;2022-07-23T11:50:48;12.17;;;9.13;;
20970;SDS011;10644;48.834;10.088;2022-07-23T11:53:28;10.00;;;9.00;;
20970;SDS011;10644;48.834;10.088;2022-07-23T11:58:53;15.33;;;9.40;;
20970;SDS011;10644;48.834;10.088;2022-07-23T12:01:30;9.07;;;8.20;;
20970;SDS011;10644;48.834;10.088;2022-07-23T12:03:55;9.70;;;7.77;;
20970;SDS011;10644;48.834;10.088;2022-07-23T12:06:26;20.40;;;8.70;;
20970;SDS011;10644;48.834;10.088;2022-07-23T12:08:52;9.40;;;8.50;;
20970;SDS011;10644;48.834;10.088;2022-07-23T12:11:23;10.73;;;7.77;;
20970;SDS011;10644;48.834;10.088;2022-07-23T12:13:55;10.47;;;8.20;;
20970;SDS011;10644;48.834;10.088;2022-07-23T12:16:22;10.53;;;8.97;;
20970;SDS011;10644;48.834;10.088;2022-07-23T12:18:52;9.70;;;7.70;;
20970;SDS011;10644;48.834;10.088;2022-07-23T12:21:18;8.73;;;7.93;;
20970;SDS011;10644;48.834;10.088;2022-07-23T12:23:47;15.93;;;9.13;;
20970;SDS011;10644;48.834;10.088;2022-07-23T12:26:20;11.43;;;8.20;;
20970;SDS011;10644;48.834;10.088;2022-07-23T12:28:51;9.87;;;7.47;;
20970;SDS011;10644;48.834;10.088;2022-07-23T12:31:25;12.17;;;9.20;;
20970;SDS011;10644;48.834;10.088;2022-07-23T12:33:51;15.30;;;7.97;;
20970;SDS011;10644;48.834;10.088;2022-07-23T12:36:16;17.70;;;8.47;;
20970;SDS011;10644;48.834;10.088;2022-07-23T12:38:42;9.90;;;8.60;;
20970;SDS011;10644;48.834;10.088;2022-07-23T12:41:12;9.37;;;8.40;;
20970;SDS011;10644;48.834;10.088;2022-07-23T12:43:39;12.00;;;9.20;;
20970;SDS011;10644;48.834;10.088;2022-07-23T12:48:39;13.90;;;8.20;;
20970;SDS011;10644;48.834;10.088;2022-07-23T12:51:22;9.90;;;8.60;;
20970;SDS011;10644;48.834;10.088;2022-07-23T12:53:58;12.80;;;8.40;;
20970;SDS011;10644;48.834;10.088;2022-07-23T12:56:29;10.43;;;7.73;;
20970;SDS011;10644;48.834;10.088;2022-07-23T13:01:28;8.50;;;7.73;;
20970;SDS011;10644;48.834;10.088;2022-07-23T13:09:13;8.53;;;7.63;;
20970;SDS011;10644;48.834;10.088;2022-07-23T13:11:46;7.87;;;7.07;;
20970;SDS011;10644;48.834;10.088;2022-07-23T13:14:13;10.97;;;7.80;;
20970;SDS011;10644;48.834;10.088;2022-07-23T13:16:46;9.77;;;7.40;;
20970;SDS011;10644;48.834;10.088;2022-07-23T13:21:48;14.93;;;7.77;;
20970;SDS011;10644;48.834;10.088;2022-07-23T13:24:14;14.87;;;8.30;;
20970;SDS011;10644;48.834;10.088;2022-07-23T13:26:40;13.83;;;8.30;;
20970;SDS011;10644;48.834;10.088;2022-07-23T13:29:06;8.40;;;7.27;;
20970;SDS011;10644;48.834;10.088;2022-07-23T13:31:32;8.80;;;6.90;;
20970;SDS011;10644;48.834;10.088;2022-07-23T13:34:01;7.43;;;6.60;;
20970;SDS011;10644;48.834;10.088;2022-07-23T13:36:26;8.03;;;7.23;;
20970;SDS011;10644;48.834;10.088;2022-07-23T13:38:52;7.27;;;6.70;;
20970;SDS011;10644;48.834;10.088;2022-07-23T13:41:23;11.10;;;8.47;;
20970;SDS011;10644;48.834;10.088;2022-07-23T13:43:49;9.80;;;6.80;;
20970;SDS011;10644;48.834;10.088;2022-07-23T13:46:21;7.33;;;6.73;;
20970;SDS011;10644;48.834;10.088;2022-07-23T13:48:47;7.30;;;6.60;;
20970;SDS011;10644;48.834;10.088;2022-07-23T13:53:58;9.50;;;6.67;;
20970;SDS011;10644;48.834;10.088;2022-07-23T13:56:36;12.20;;;7.80;;
20970;SDS011;10644;48.834;10.088;2022-07-23T13:59:02;8.20;;;7.33;;
20970;SDS011;10644;48.834;10.088;2022-07-23T14:01:29;7.73;;;6.93;;
20970;SDS011;10644;48.834;10.088;2022-07-23T14:04:07;7.17;;;6.50;;
20970;SDS011;10644;48.834;10.088;2022-07-23T14:06:32;10.53;;;7.63;;
20970;SDS011;10644;48.834;10.088;2022-07-23T14:11:27;9.70;;;7.40;;
20970;SDS011;10644;48.834;10.088;2022-07-23T14:13:55;7.37;;;6.67;;
20970;SDS011;10644;48.834;10.088;2022-07-23T14:16:22;18.10;;;8.60;;
20970;SDS011;10644;48.834;10.088;2022-07-23T14:18:48;8.90;;;7.30;;
20970;SDS011;10644;48.834;10.088;2022-07-23T14:21:15;8.10;;;7.30;;
20970;SDS011;10644;48.834;10.088;2022-07-23T14:23:41;6.87;;;6.27;;
20970;SDS011;10644;48.834;10.088;2022-07-23T14:26:06;7.80;;;6.70;;
20970;SDS011;10644;48.834;10.088;2022-07-23T14:28:33;12.30;;;7.37;;
20970;SDS011;10644;48.834;10.088;2022-07-23T14:30:59;6.90;;;6.30;;
20970;SDS011;10644;48.834;10.088;2022-07-23T14:33:26;9.50;;;6.90;;
20970;SDS011;10644;48.834;10.088;2022-07-23T14:35:52;7.63;;;6.93;;
20970;SDS011;10644;48.834;10.088;2022-07-23T14:38:17;8.97;;;6.97;;
20970;SDS011;10644;48.834;10.088;2022-07-23T14:40:43;10.77;;;6.70;;
20970;SDS011;10644;48.834;10.088;2022-07-23T14:43:08;8.00;;;7.17;;
20970;SDS011;10644;48.834;10.088;2022-07-23T14:45:34;9.93;;;6.77;;
20970;SDS011;10644;48.834;10.088;2022-07-23T14:47:59;9.57;;;7.37;;
20970;SDS011;10644;48.834;10.088;2022-07-23T14:50:30;8.20;;;7.37;;
20970;SDS011;10644;48.834;10.088;2022-07-23T14:52:56;7.60;;;6.50;;
20970;SDS011;10644;48.834;10.088;2022-07-23T14:55:24;21.23;;;8.57;;
20970;SDS011;10644;48.834;10.088;2022-07-23T14:57:49;9.83;;;7.83;;
20970;SDS011;10644;48.834;10.088;2022-07-23T15:00:16;8.13;;;7.07;;
20970;SDS011;10644;48.834;10.088;2022-07-23T15:02:41;8.27;;;7.43;;
20970;SDS011;10644;48.834;10.088;2022-07-23T15:05:07;10.27;;;7.37;;
20970;SDS011;10644;48.834;10.088;2022-07-23T15:07:33;12.80;;;7.80;;
20970;SDS011;10644;48.834;10.088;2022-07-23T15:10:04;11.30;;;8.03;;
20970;SDS011;10644;48.834;10.088;2022-07-23T15:12:31;11.53;;;7.90;;
20970;SDS011;10644;48.834;10.088;2022-07-23T15:14:56;14.53;;;7.90;;
20970;SDS011;10644;48.834;10.088;2022-07-23T15:17:23;8.23;;;7.43;;
20970;SDS011;10644;48.834;10.088;2022-07-23T15:19:49;12.20;;;8.43;;
20970;SDS011;10644;48.834;10.088;2022-07-23T15:22:15;9.57;;;8.10;;
20970;SDS011;10644;48.834;10.088;2022-07-23T15:24:41;8.90;;;7.53;;
20970;SDS011;10644;48.834;10.088;2022-07-23T15:27:07;10.70;;;8.00;;
20970;SDS011;10644;48.834;10.088;2022-07-23T15:29:34;13.97;;;8.27;;
20970;SDS011;10644;48.834;10.088;2022-07-23T15:32:07;14.70;;;8.30;;
20970;SDS011;10644;48.834;10.088;2022-07-23T15:34:32;10.13;;;8.67;;
20970;SDS011;10644;48.834;10.088;2022-07-23T15:37:01;9.30;;;7.80;;
20970;SDS011;10644;48.834;10.088;2022-07-23T15:39:27;8.87;;;7.90;;
20970;SDS011;10644;48.834;10.088;2022-07-23T15:41:56;9.10;;;8.10;;
20970;SDS011;10644;48.834;10.088;2022-07-23T15:44:22;9.70;;;8.67;;
20970;SDS011;10644;48.834;10.088;2022-07-23T15:46:47;9.73;;;8.83;;
20970;SDS011;10644;48.834;10.088;2022-07-23T15:49:14;11.77;;;9.20;;
20970;SDS011;10644;48.834;10.088;2022-07-23T15:51:39;12.43;;;8.83;;
20970;SDS011;10644;48.834;10.088;2022-07-23T15:54:04;13.60;;;8.50;;
20970;SDS011;10644;48.834;10.088;2022-07-23T15:56:32;14.07;;;8.37;;
20970;SDS011;10644;48.834;10.088;2022-07-23T15:58:57;10.90;;;8.73;;
20970;SDS011;10644;48.834;10.088;2022-07-23T16:01:23;13.30;;;8.57;;
20970;SDS011;10644;48.834;10.088;2022-07-23T16:03:52;15.87;;;10.20;;
20970;SDS011;10644;48.834;10.088;2022-07-23T16:06:17;15.73;;;8.53;;
20970;SDS011;10644;48.834;10.088;2022-07-23T16:08:43;12.67;;;8.63;;
20970;SDS011;10644;48.834;10.088;2022-07-23T16:11:08;12.07;;;9.20;;
20970;SDS011;10644;48.834;10.088;2022-07-23T16:13:43;8.97;;;8.10;;
20970;SDS011;10644;48.834;10.088;2022-07-23T16:16:09;12.77;;;8.80;;
20970;SDS011;10644;48.834;10.088;2022-07-23T16:18:36;8.90;;;8.10;;
20970;SDS011;10644;48.834;10.088;2022-07-23T16:21:03;9.20;;;8.33;;
20970;SDS011;10644;48.834;10.088;2022-07-23T16:23:29;12.90;;;8.80;;
20970;SDS011;10644;48.834;10.088;2022-07-23T16:25:54;8.87;;;8.03;;
20970;SDS011;10644;48.834;10.088;2022-07-23T16:28:19;21.97;;;9.90;;
20970;SDS011;10644;48.834;10.088;2022-07-23T16:30:51;11.87;;;8.20;;
20970;SDS011;10644;48.834;10.088;2022-07-23T16:33:18;10.60;;;8.77;;
20970;SDS011;10644;48.834;10.088;2022-07-23T16:35:45;9.60;;;8.60;;
20970;SDS011;10644;48.834;10.088;2022-07-23T16:38:10;10.50;;;8.33;;